createdAt,value
2018-03-12T00:02:08.392Z,26.77
2018-03-12T00:04:36.615Z,26.00
2018-03-12T00:07:04.752Z,26.20
2018-03-12T00:09:32.898Z,25.70
2018-03-12T00:12:01.788Z,26.60
2018-03-12T00:14:29.883Z,25.03
2018-03-12T00:16:59.150Z,26.70
2018-03-12T00:19:27.275Z,25.37
2018-03-12T00:21:56.130Z,25.07
2018-03-12T00:24:24.247Z,26.27
2018-03-12T00:26:52.372Z,26.10
2018-03-12T00:29:20.488Z,24.57
2018-03-12T00:31:48.635Z,25.33
2018-03-12T00:34:16.737Z,24.00
2018-03-12T00:36:44.861Z,26.10
2018-03-12T00:39:12.977Z,25.30
2018-03-12T00:41:41.131Z,24.07
2018-03-12T00:44:09.272Z,25.80
2018-03-12T00:46:37.356Z,25.10
2018-03-12T00:49:05.472Z,25.33
2018-03-12T00:51:33.621Z,24.27
2018-03-12T00:54:01.767Z,23.60
2018-03-12T00:56:29.866Z,23.67
2018-03-12T00:58:58.770Z,24.23
2018-03-12T01:01:27.672Z,24.57
2018-03-12T01:03:55.767Z,23.07
2018-03-12T01:06:24.630Z,21.90
2018-03-12T01:08:52.715Z,21.77
2018-03-12T01:11:20.865Z,24.67
2018-03-12T01:13:49.067Z,24.07
2018-03-12T01:16:17.162Z,25.80
2018-03-12T01:18:45.345Z,26.10
2018-03-12T01:21:13.459Z,26.97
2018-03-12T01:23:41.580Z,28.10
2018-03-12T01:26:09.672Z,29.40
2018-03-12T01:28:37.794Z,28.13
2018-03-12T01:31:05.908Z,27.23
2018-03-12T01:33:34.836Z,26.27
2018-03-12T01:36:03.709Z,28.97
2018-03-12T01:38:31.803Z,28.97
2018-03-12T01:41:00.669Z,30.20
2018-03-12T01:43:28.783Z,28.90
2018-03-12T01:45:57.657Z,28.27
2018-03-12T01:48:25.755Z,30.70
2018-03-12T01:50:53.848Z,31.70
2018-03-12T01:53:21.938Z,31.80
2018-03-12T01:55:50.836Z,31.97
2018-03-12T01:58:19.739Z,33.70
2018-03-12T02:00:48.667Z,32.93
2018-03-12T02:03:16.795Z,33.23
2018-03-12T02:05:44.973Z,30.90
2018-03-12T02:08:13.095Z,32.37
2018-03-12T02:10:41.988Z,31.23
2018-03-12T02:13:10.085Z,34.23
2018-03-12T02:15:38.938Z,33.53
2018-03-12T02:18:07.029Z,31.63
2018-03-12T02:20:35.181Z,31.60
2018-03-12T02:23:03.346Z,32.60
2018-03-12T02:25:31.481Z,34.50
2018-03-12T02:27:59.632Z,32.73
2018-03-12T02:30:27.787Z,33.57
2018-03-12T02:32:55.982Z,35.00
2018-03-12T02:35:24.133Z,34.90
2018-03-12T02:37:52.248Z,33.60
2018-03-12T02:40:21.155Z,34.20
2018-03-12T02:42:49.242Z,34.17
2018-03-12T02:45:18.181Z,33.67
2018-03-12T02:47:46.264Z,35.33
2018-03-12T02:50:14.359Z,35.83
2018-03-12T02:52:42.468Z,35.60
2018-03-12T02:55:10.613Z,34.07
2018-03-12T02:57:38.748Z,34.97
2018-03-12T03:00:06.849Z,34.77
2018-03-12T03:02:35.739Z,33.53
2018-03-12T03:05:03.826Z,33.80
2018-03-12T03:07:31.928Z,30.60
2018-03-12T03:10:00.801Z,33.50
2018-03-12T03:12:28.887Z,33.10
2018-03-12T03:14:56.975Z,30.57
2018-03-12T03:17:25.122Z,27.90
2018-03-12T03:19:53.249Z,31.50
2018-03-12T03:22:21.339Z,31.47
2018-03-12T03:24:50.208Z,30.97
2018-03-12T03:27:18.331Z,30.90
2018-03-12T03:29:46.410Z,33.23
2018-03-12T03:32:15.487Z,30.87
2018-03-12T03:34:43.599Z,32.00
2018-03-12T03:37:12.482Z,32.00
2018-03-12T03:39:40.605Z,28.77
2018-03-12T03:42:08.818Z,29.60
2018-03-12T03:44:50.626Z,29.13
2018-03-12T03:47:18.776Z,29.70
2018-03-12T03:49:47.639Z,28.50
2018-03-12T03:52:15.751Z,28.40
2018-03-12T03:54:43.826Z,28.37
2018-03-12T03:57:13.434Z,28.70
2018-03-12T03:59:41.563Z,29.47
2018-03-12T04:02:09.651Z,30.07
2018-03-12T04:04:37.743Z,27.20
2018-03-12T04:07:05.860Z,27.40
2018-03-12T04:09:33.936Z,29.53
2018-03-12T04:12:02.079Z,26.77
2018-03-12T04:14:30.235Z,26.23
2018-03-12T04:16:58.336Z,26.00
2018-03-12T04:19:26.468Z,27.70
2018-03-12T04:21:54.571Z,27.00
2018-03-12T04:24:22.675Z,27.77
2018-03-12T04:26:50.812Z,28.03
2018-03-12T04:29:18.899Z,25.00
2018-03-12T04:31:47.237Z,25.40
2018-03-12T04:34:15.357Z,25.57
2018-03-12T04:36:44.234Z,26.87
2018-03-12T04:39:13.107Z,26.07
2018-03-12T04:41:42.090Z,25.00
2018-03-12T04:44:10.200Z,24.13
2018-03-12T04:46:38.329Z,25.50
2018-03-12T04:49:06.433Z,25.20
2018-03-12T04:51:34.539Z,26.00
2018-03-12T04:54:02.711Z,25.20
2018-03-12T04:56:30.867Z,25.60
2018-03-12T04:58:58.979Z,26.50
2018-03-12T05:01:27.075Z,26.83
2018-03-12T05:03:55.204Z,23.43
2018-03-12T05:06:24.128Z,25.03
2018-03-12T05:08:52.219Z,22.93
2018-03-12T05:11:20.531Z,25.57
2018-03-12T05:13:48.607Z,24.77
2018-03-12T05:16:16.784Z,23.83
2018-03-12T05:18:44.906Z,22.90
2018-03-12T05:21:13.051Z,22.77
2018-03-12T05:23:42.082Z,23.07
2018-03-12T05:26:10.279Z,22.37
2018-03-12T05:28:38.396Z,22.90
2018-03-12T05:31:06.554Z,22.40
2018-03-12T05:33:35.043Z,23.50
2018-03-12T05:36:03.174Z,24.83
2018-03-12T05:38:31.315Z,25.33
2018-03-12T05:40:59.421Z,26.43
2018-03-12T05:43:27.668Z,26.10
2018-03-12T05:45:55.807Z,25.60
2018-03-12T05:48:24.048Z,25.57
2018-03-12T05:50:52.117Z,31.23
2018-03-12T05:53:20.309Z,28.20
2018-03-12T05:55:48.434Z,28.03
2018-03-12T05:58:17.439Z,29.13
2018-03-12T06:00:45.648Z,30.10
2018-03-12T06:03:13.813Z,27.93
2018-03-12T06:05:42.674Z,28.00
2018-03-12T06:08:10.780Z,27.93
2018-03-12T06:10:38.897Z,28.77
2018-03-12T06:13:07.801Z,28.27
2018-03-12T06:15:36.700Z,29.47
2018-03-12T06:18:06.814Z,31.30
2018-03-12T06:20:35.687Z,31.67
2018-03-12T06:23:03.949Z,33.73
2018-03-12T06:25:32.079Z,31.43
2018-03-12T06:28:00.208Z,33.90
2018-03-12T06:30:28.333Z,33.83
2018-03-12T06:32:56.496Z,33.53
2018-03-12T06:35:24.619Z,29.93
2018-03-12T06:37:52.768Z,29.33
2018-03-12T06:40:21.987Z,30.50
2018-03-12T06:42:50.110Z,30.77
2018-03-12T06:45:18.543Z,31.50
2018-03-12T06:47:46.778Z,32.10
2018-03-12T06:50:14.941Z,29.93
2018-03-12T06:52:47.556Z,28.43
2018-03-12T06:55:16.740Z,29.27
2018-03-12T06:57:44.977Z,29.20
2018-03-12T07:00:13.206Z,28.03
2018-03-12T07:02:41.321Z,26.00
2018-03-12T07:05:09.526Z,26.43
2018-03-12T07:07:38.509Z,25.43
2018-03-12T07:10:07.353Z,25.57
2018-03-12T07:12:36.200Z,26.10
2018-03-12T07:15:04.669Z,26.40
2018-03-12T07:17:33.006Z,26.90
2018-03-12T07:20:01.079Z,29.30
2018-03-12T07:22:29.199Z,27.67
2018-03-12T07:24:57.499Z,26.10
2018-03-12T07:27:26.072Z,28.27
2018-03-12T07:29:54.927Z,26.97
2018-03-12T07:32:23.128Z,26.30
2018-03-12T07:34:51.531Z,26.27
2018-03-12T07:37:19.680Z,26.20
2018-03-12T07:39:47.808Z,24.97
2018-03-12T07:42:15.921Z,26.10
2018-03-12T07:44:44.360Z,26.77
2018-03-12T07:47:13.217Z,26.00
2018-03-12T07:49:41.336Z,25.93
2018-03-12T07:52:09.616Z,25.80
2018-03-12T07:54:37.711Z,24.83
2018-03-12T07:57:05.828Z,25.37
2018-03-12T07:59:34.768Z,25.50
2018-03-12T08:02:02.885Z,26.97
2018-03-12T08:04:31.074Z,24.70
2018-03-12T08:06:59.551Z,25.17
2018-03-12T08:09:27.724Z,23.70
2018-03-12T08:11:55.928Z,24.23
2018-03-12T08:14:30.832Z,25.50
2018-03-12T08:16:59.310Z,25.57
2018-03-12T08:19:27.683Z,23.37
2018-03-12T08:21:55.813Z,22.47
2018-03-12T08:24:23.967Z,23.47
2018-03-12T08:26:53.677Z,23.70
2018-03-12T08:29:21.771Z,24.53
2018-03-12T08:31:51.323Z,25.33
2018-03-12T08:34:19.428Z,25.93
2018-03-12T08:36:47.592Z,23.10
2018-03-12T08:39:15.725Z,26.03
2018-03-12T08:41:44.266Z,24.90
2018-03-12T08:44:12.596Z,26.67
2018-03-12T08:46:40.732Z,25.83
2018-03-12T08:49:08.977Z,25.70
2018-03-12T08:51:38.178Z,24.20
2018-03-12T08:54:06.500Z,25.03
2018-03-12T08:56:34.636Z,25.90
2018-03-12T08:59:02.841Z,27.00
2018-03-12T09:01:31.016Z,25.73
2018-03-12T09:03:59.980Z,24.60
2018-03-12T09:06:28.239Z,24.27
2018-03-12T09:08:56.389Z,25.00
2018-03-12T09:11:24.811Z,27.40
2018-03-12T09:13:54.272Z,25.73
2018-03-12T09:16:23.144Z,24.13
2018-03-12T09:18:51.317Z,23.23
2018-03-12T09:21:19.446Z,24.27
2018-03-12T09:23:47.552Z,23.93
2018-03-12T09:26:17.215Z,22.30
2018-03-12T09:28:45.589Z,23.57
2018-03-12T09:31:14.673Z,23.10
2018-03-12T09:33:47.042Z,23.50
2018-03-12T09:36:15.334Z,21.53
2018-03-12T09:38:43.661Z,21.70
2018-03-12T09:41:11.761Z,20.50
2018-03-12T09:43:43.745Z,22.07
2018-03-12T09:46:11.884Z,22.40
2018-03-12T09:48:40.047Z,22.57
2018-03-12T09:51:08.164Z,22.00
2018-03-12T09:53:36.324Z,22.13
2018-03-12T09:56:04.437Z,23.30
2018-03-12T09:58:42.600Z,22.20
2018-03-12T10:01:10.727Z,23.63
2018-03-12T10:03:48.828Z,23.10
2018-03-12T10:06:16.964Z,23.93
2018-03-12T10:08:45.112Z,24.77
2018-03-12T10:11:13.408Z,25.83
2018-03-12T10:13:41.593Z,26.10
2018-03-12T10:16:09.741Z,25.57
2018-03-12T10:18:38.021Z,26.07
2018-03-12T10:21:06.249Z,25.70
2018-03-12T10:23:35.312Z,26.63
2018-03-12T10:26:04.813Z,24.27
2018-03-12T10:28:33.687Z,26.07
2018-03-12T10:31:01.796Z,27.07
2018-03-12T10:33:29.947Z,27.40
2018-03-12T10:35:58.064Z,25.77
2018-03-12T10:38:26.984Z,26.97
2018-03-12T10:40:55.965Z,29.20
2018-03-12T10:43:24.226Z,28.27
2018-03-12T10:45:52.521Z,28.13
2018-03-12T10:48:20.648Z,27.90
2018-03-12T10:50:48.777Z,27.60
2018-03-12T10:53:17.280Z,29.50
2018-03-12T10:55:45.984Z,28.73
2018-03-12T10:58:14.549Z,29.17
2018-03-12T11:00:48.489Z,29.80
2018-03-12T11:03:22.863Z,28.57
2018-03-12T11:05:56.714Z,30.10
2018-03-12T11:08:24.881Z,31.73
2018-03-12T11:10:53.929Z,31.30
2018-03-12T11:13:22.535Z,32.33
2018-03-12T11:15:50.704Z,29.03
2018-03-12T11:18:19.808Z,29.20
2018-03-12T11:20:47.923Z,31.90
2018-03-12T11:23:16.420Z,30.57
2018-03-12T11:25:45.491Z,30.40
2018-03-12T11:28:13.676Z,30.90
2018-03-12T11:30:41.843Z,30.53
2018-03-12T11:33:10.106Z,29.90
2018-03-12T11:35:38.349Z,29.57
2018-03-12T11:38:06.677Z,30.57
2018-03-12T11:40:35.297Z,30.27
2018-03-12T11:43:04.340Z,28.80
2018-03-12T11:45:32.819Z,29.57
2018-03-12T11:48:00.959Z,28.97
2018-03-12T11:50:29.089Z,30.33
2018-03-12T11:52:57.217Z,29.87
2018-03-12T11:55:25.336Z,32.10
2018-03-12T11:57:53.723Z,32.87
2018-03-12T12:00:22.615Z,32.97
2018-03-12T12:02:50.739Z,31.00
2018-03-12T12:05:18.930Z,29.90
2018-03-12T12:07:47.060Z,35.60
2018-03-12T12:10:15.335Z,29.03
2018-03-12T12:12:43.445Z,28.70
2018-03-12T12:15:12.384Z,30.00
2018-03-12T12:17:46.272Z,30.53
2018-03-12T12:20:14.505Z,30.20
2018-03-12T12:22:42.607Z,30.17
2018-03-12T12:25:10.736Z,29.37
2018-03-12T12:27:39.272Z,31.70
2018-03-12T12:30:07.440Z,31.70
2018-03-12T12:32:35.534Z,31.60
2018-03-12T12:35:03.853Z,31.40
2018-03-12T12:37:32.609Z,32.20
2018-03-12T12:40:00.731Z,32.77
2018-03-12T12:42:29.245Z,32.90
2018-03-12T12:44:57.396Z,31.40
2018-03-12T12:47:25.915Z,30.70
2018-03-12T12:49:54.070Z,33.73
2018-03-12T12:52:22.190Z,30.50
2018-03-12T12:54:50.391Z,31.80
2018-03-12T12:57:18.568Z,32.03
2018-03-12T12:59:46.744Z,31.90
2018-03-12T13:02:14.887Z,33.10
2018-03-12T13:04:43.054Z,34.07
2018-03-12T13:07:11.162Z,38.17
2018-03-12T13:09:39.736Z,35.40
2018-03-12T13:12:07.834Z,34.63
2018-03-12T13:14:36.099Z,32.23
2018-03-12T13:17:04.203Z,31.90
2018-03-12T13:19:32.341Z,34.03
2018-03-12T13:22:00.966Z,33.70
2018-03-12T13:24:29.060Z,35.80
2018-03-12T13:26:58.254Z,33.30
2018-03-12T13:29:27.291Z,35.90
2018-03-12T13:31:55.505Z,35.17
2018-03-12T13:34:23.777Z,34.90
2018-03-12T13:36:51.907Z,35.10
2018-03-12T13:39:20.166Z,34.20
2018-03-12T13:41:48.299Z,35.20
2018-03-12T13:44:16.541Z,34.23
2018-03-12T13:46:44.658Z,36.47
2018-03-12T13:49:13.602Z,36.83
2018-03-12T13:54:14.792Z,35.90
2018-03-12T13:56:43.191Z,36.27
2018-03-12T13:59:11.336Z,39.67
2018-03-12T14:01:39.524Z,39.57
2018-03-12T14:04:07.613Z,38.13
2018-03-12T14:06:35.782Z,39.43
2018-03-12T14:09:04.713Z,39.23
2018-03-12T14:11:32.832Z,38.07
2018-03-12T14:14:01.359Z,41.77
2018-03-12T14:16:29.492Z,44.03
2018-03-12T14:18:57.817Z,42.10
2018-03-12T14:21:26.097Z,41.47
2018-03-12T14:23:54.348Z,41.23
2018-03-12T14:26:22.436Z,38.83
2018-03-12T14:28:50.567Z,37.77
2018-03-12T14:31:21.200Z,39.33
2018-03-12T14:33:49.294Z,36.00
2018-03-12T14:36:18.243Z,38.63
2018-03-12T14:38:46.534Z,36.03
2018-03-12T14:41:14.702Z,37.10
2018-03-12T14:43:42.809Z,35.00
2018-03-12T14:46:11.759Z,35.93
2018-03-12T14:48:40.354Z,34.90
2018-03-12T14:51:10.128Z,35.70
2018-03-12T14:53:39.390Z,33.73
2018-03-12T14:56:07.516Z,36.67
2018-03-12T14:58:35.667Z,36.20
2018-03-12T15:01:04.555Z,35.53
2018-03-12T15:03:32.754Z,37.43
2018-03-12T15:06:02.012Z,35.10
2018-03-12T15:08:32.905Z,34.67
2018-03-12T15:11:01.023Z,32.73
2018-03-12T15:13:29.828Z,34.77
2018-03-12T15:15:58.062Z,34.57
2018-03-12T15:18:26.391Z,36.20
2018-03-12T15:20:54.555Z,34.03
2018-03-12T15:23:22.704Z,36.70
2018-03-12T15:25:50.839Z,35.60
2018-03-12T15:28:19.834Z,34.97
2018-03-12T15:30:47.966Z,36.20
2018-03-12T15:33:16.073Z,34.93
2018-03-12T15:35:44.376Z,35.17
2018-03-12T15:38:12.582Z,34.70
2018-03-12T15:40:41.488Z,36.20
2018-03-12T15:43:09.578Z,35.60
2018-03-12T15:45:37.920Z,34.03
2018-03-12T15:48:06.015Z,35.70
2018-03-12T15:50:34.160Z,35.30
2018-03-12T15:53:02.375Z,35.27
2018-03-12T15:55:30.538Z,32.80
2018-03-12T15:57:58.747Z,33.53
2018-03-12T16:00:27.759Z,33.30
2018-03-12T16:02:56.173Z,33.30
2018-03-12T16:05:24.344Z,31.47
2018-03-12T16:07:52.451Z,32.00
2018-03-12T16:10:21.395Z,30.90
2018-03-12T16:12:50.442Z,32.37
2018-03-12T16:15:18.574Z,29.67
2018-03-12T16:17:46.916Z,29.63
2018-03-12T16:20:15.142Z,33.60
2018-03-12T16:22:43.295Z,33.13
2018-03-12T16:25:11.408Z,33.00
2018-03-12T16:27:39.536Z,34.57
2018-03-12T16:30:07.850Z,31.03
2018-03-12T16:32:36.052Z,32.73
2018-03-12T16:35:05.742Z,34.77
2018-03-12T16:37:33.859Z,34.60
2018-03-12T16:40:02.803Z,34.87
2018-03-12T16:42:30.906Z,34.70
2018-03-12T16:44:59.038Z,34.33
2018-03-12T16:47:27.184Z,33.30
2018-03-12T16:49:55.296Z,32.60
2018-03-12T16:52:24.182Z,32.20
2018-03-12T16:54:52.348Z,33.00
2018-03-12T16:57:20.574Z,33.10
2018-03-12T16:59:48.753Z,29.23
2018-03-12T17:02:16.934Z,33.87
2018-03-12T17:04:45.298Z,32.60
2018-03-12T17:07:13.396Z,34.33
2018-03-12T17:09:41.519Z,31.57
2018-03-12T17:12:09.883Z,32.10
2018-03-12T17:14:37.974Z,34.70
2018-03-12T17:17:06.099Z,35.23
2018-03-12T17:19:34.239Z,34.27
2018-03-12T17:22:03.916Z,36.50
2018-03-12T17:24:32.091Z,34.90
2018-03-12T17:27:08.181Z,35.90
2018-03-12T17:29:36.352Z,39.03
2018-03-12T17:32:04.543Z,36.60
2018-03-12T17:34:32.655Z,36.10
2018-03-12T17:37:01.469Z,35.33
2018-03-12T17:39:30.457Z,35.70
2018-03-12T17:41:58.577Z,35.47
2018-03-12T17:44:26.760Z,34.77
2018-03-12T17:46:55.771Z,33.93
2018-03-12T17:49:24.626Z,34.97
2018-03-12T17:51:52.739Z,35.90
2018-03-12T17:54:20.853Z,34.63
2018-03-12T17:56:48.959Z,36.63
2018-03-12T17:59:17.136Z,36.50
2018-03-12T18:01:45.348Z,35.50
2018-03-12T18:04:13.454Z,37.23
2018-03-12T18:06:41.595Z,35.60
2018-03-12T18:09:09.921Z,36.70
2018-03-12T18:11:38.074Z,35.47
2018-03-12T18:14:07.197Z,36.23
2018-03-12T18:16:35.365Z,35.27
2018-03-12T18:19:05.131Z,36.80
2018-03-12T18:21:33.268Z,37.77
2018-03-12T18:24:01.382Z,38.53
2018-03-12T18:26:29.526Z,41.00
2018-03-12T18:28:57.769Z,42.33
2018-03-12T18:31:25.915Z,39.97
2018-03-12T18:33:54.047Z,41.27
2018-03-12T18:36:22.168Z,41.23
2018-03-12T18:38:50.254Z,40.50
2018-03-12T18:41:18.464Z,41.80
2018-03-12T18:43:46.560Z,40.53
2018-03-12T18:46:14.772Z,41.80
2018-03-12T18:48:42.879Z,41.03
2018-03-12T18:51:11.769Z,41.70
2018-03-12T18:53:39.979Z,42.50
2018-03-12T18:56:08.092Z,41.77
2018-03-12T18:58:36.208Z,42.40
2018-03-12T19:01:04.859Z,43.20
2018-03-12T19:03:33.178Z,43.37
2018-03-12T19:06:01.483Z,43.27
2018-03-12T19:08:29.587Z,42.63
2018-03-12T19:10:58.459Z,41.40
2018-03-12T19:13:26.618Z,42.80
2018-03-12T19:15:54.740Z,42.57
2018-03-12T19:18:22.877Z,44.17
2018-03-12T19:20:51.031Z,42.40
2018-03-12T19:23:19.960Z,43.47
2018-03-12T19:25:48.832Z,41.10
2018-03-12T19:28:16.948Z,40.70
2018-03-12T19:30:45.775Z,41.77
2018-03-12T19:33:13.882Z,43.53
2018-03-12T19:35:42.134Z,41.60
2018-03-12T19:38:10.425Z,40.80
2018-03-12T19:40:39.294Z,38.43
2018-03-12T19:43:08.181Z,37.80
2018-03-12T19:45:36.380Z,35.77
2018-03-12T19:48:04.495Z,37.90
2018-03-12T19:50:32.623Z,37.53
2018-03-12T19:53:00.745Z,34.13
2018-03-12T19:55:28.895Z,36.50
2018-03-12T19:57:57.056Z,36.57
2018-03-12T20:00:25.164Z,35.93
2018-03-12T20:02:53.283Z,35.90
2018-03-12T20:05:22.152Z,37.13
2018-03-12T20:07:50.264Z,37.70
2018-03-12T20:10:24.501Z,36.00
2018-03-12T20:12:53.538Z,38.70
2018-03-12T20:15:33.492Z,38.50
2018-03-12T20:18:01.591Z,37.23
2018-03-12T20:20:29.709Z,38.60
2018-03-12T20:22:57.833Z,38.57
2018-03-12T20:25:25.928Z,41.47
2018-03-12T20:27:54.095Z,42.50
2018-03-12T20:30:22.307Z,38.80
2018-03-12T20:32:50.504Z,39.13
2018-03-12T20:35:20.540Z,39.90
2018-03-12T20:37:48.651Z,38.80
2018-03-12T20:40:17.506Z,41.30
2018-03-12T20:42:45.639Z,39.70
2018-03-12T20:45:14.550Z,41.80
2018-03-12T20:47:43.454Z,36.90
2018-03-12T20:50:12.346Z,37.50
2018-03-12T20:52:40.548Z,39.13
2018-03-12T20:55:08.587Z,38.10
2018-03-12T20:57:36.706Z,41.00
2018-03-12T21:00:05.596Z,37.90
2018-03-12T21:02:33.780Z,36.97
2018-03-12T21:05:03.586Z,36.10
2018-03-12T21:07:31.802Z,35.73
2018-03-12T21:10:00.675Z,37.70
2018-03-12T21:12:28.793Z,38.60
2018-03-12T21:14:57.652Z,36.50
2018-03-12T21:17:25.780Z,36.50
2018-03-12T21:19:53.893Z,36.37
2018-03-12T21:22:21.992Z,36.73
2018-03-12T21:24:50.070Z,35.30
2018-03-12T21:27:18.179Z,35.13
2018-03-12T21:29:46.267Z,37.30
2018-03-12T21:32:14.412Z,36.20
2018-03-12T21:34:42.571Z,34.27
2018-03-12T21:37:10.634Z,39.77
2018-03-12T21:39:38.795Z,36.70
2018-03-12T21:42:06.935Z,36.07
2018-03-12T21:44:35.125Z,36.03
2018-03-12T21:47:03.457Z,34.47
2018-03-12T21:49:31.562Z,35.70
2018-03-12T21:51:59.682Z,36.33
2018-03-12T21:54:27.990Z,38.40
2018-03-12T21:56:56.843Z,35.37
2018-03-12T21:59:24.927Z,35.37
2018-03-12T22:01:53.018Z,34.57
2018-03-12T22:04:21.126Z,35.80
2018-03-12T22:06:49.232Z,33.77
2018-03-12T22:09:17.354Z,35.23
2018-03-12T22:11:45.464Z,33.90
2018-03-12T22:14:13.684Z,32.00
2018-03-12T22:16:41.786Z,32.50
2018-03-12T22:19:09.886Z,31.67
2018-03-12T22:21:38.104Z,30.50
2018-03-12T22:24:06.963Z,33.87
2018-03-12T22:26:35.062Z,32.70
2018-03-12T22:29:03.216Z,34.37
2018-03-12T22:31:31.329Z,34.80
2018-03-12T22:33:59.426Z,33.70
2018-03-12T22:36:27.522Z,33.67
2018-03-12T22:38:56.585Z,34.57
2018-03-12T22:41:24.692Z,31.93
2018-03-12T22:43:52.783Z,31.63
2018-03-12T22:46:20.853Z,32.27
2018-03-12T22:48:48.985Z,31.13
2018-03-12T22:51:17.305Z,30.33
2018-03-12T22:53:45.382Z,31.63
2018-03-12T22:56:13.476Z,28.70
2018-03-12T22:58:42.328Z,27.97
2018-03-12T23:01:11.256Z,26.47
2018-03-12T23:03:39.444Z,26.30
2018-03-12T23:06:07.513Z,26.90
2018-03-12T23:08:35.610Z,26.17
2018-03-12T23:11:03.780Z,25.40
2018-03-12T23:13:31.878Z,27.17
2018-03-12T23:18:55.234Z,27.03
2018-03-12T23:21:23.343Z,25.30
2018-03-12T23:23:52.227Z,25.27
2018-03-12T23:26:20.347Z,24.23
2018-03-12T23:28:48.467Z,22.93
2018-03-12T23:31:16.550Z,23.83
2018-03-12T23:33:44.654Z,23.20
2018-03-12T23:36:12.755Z,23.33
2018-03-12T23:38:40.880Z,22.77
2018-03-12T23:41:08.986Z,23.20
2018-03-12T23:43:37.156Z,22.60
2018-03-12T23:46:05.275Z,22.37
2018-03-12T23:48:33.387Z,22.33
2018-03-12T23:51:02.368Z,23.27
2018-03-12T23:53:30.456Z,22.40
2018-03-12T23:55:58.569Z,23.60
2018-03-12T23:58:27.464Z,24.40
